createdAt,value
2019-05-19T00:00:55.450Z,30.10
2019-05-19T00:03:25.795Z,30.10
2019-05-19T00:05:56.005Z,30.20
2019-05-19T00:08:26.437Z,30.30
2019-05-19T00:10:56.847Z,30.40
2019-05-19T00:13:27.182Z,30.40
2019-05-19T00:15:57.404Z,30.50
2019-05-19T00:18:27.737Z,30.60
2019-05-19T00:20:58.127Z,30.60
2019-05-19T00:23:28.585Z,30.70
2019-05-19T00:25:59.016Z,30.70
2019-05-19T00:28:29.496Z,30.80
2019-05-19T00:30:59.774Z,30.90
2019-05-19T00:33:30.249Z,30.90
2019-05-19T00:36:00.562Z,30.90
2019-05-19T00:38:31.315Z,31.00
2019-05-19T00:41:01.952Z,31.10
2019-05-19T00:43:32.200Z,31.10
2019-05-19T00:46:02.723Z,31.20
2019-05-19T00:48:33.384Z,31.20
2019-05-19T00:51:03.599Z,31.30
2019-05-19T00:53:34.382Z,31.40
2019-05-19T00:56:05.487Z,31.40
2019-05-19T00:58:36.215Z,31.50
2019-05-19T01:01:06.521Z,31.50
2019-05-19T01:03:36.786Z,31.50
2019-05-19T01:06:07.233Z,31.60
2019-05-19T01:08:37.500Z,31.70
2019-05-19T01:11:08.065Z,31.70
2019-05-19T01:13:38.349Z,31.70
2019-05-19T01:16:08.467Z,31.80
2019-05-19T01:18:38.868Z,31.90
2019-05-19T01:21:09.347Z,32.00
2019-05-19T01:23:39.488Z,32.10
2019-05-19T01:26:09.944Z,32.10
2019-05-19T01:28:40.206Z,32.20
2019-05-19T01:31:10.387Z,32.20
2019-05-19T01:33:40.792Z,32.20
2019-05-19T01:36:11.258Z,32.20
2019-05-19T01:38:41.854Z,32.30
2019-05-19T01:41:12.287Z,32.40
2019-05-19T01:43:43.094Z,32.40
2019-05-19T01:46:13.526Z,32.50
2019-05-19T01:48:43.858Z,32.50
2019-05-19T01:51:14.080Z,32.50
2019-05-19T01:53:44.588Z,32.60
2019-05-19T01:56:14.808Z,32.70
2019-05-19T01:58:45.250Z,32.90
2019-05-19T02:01:15.573Z,32.90
2019-05-19T02:03:46.310Z,33.10
2019-05-19T02:06:16.666Z,33.10
2019-05-19T02:08:46.929Z,33.20
2019-05-19T02:11:17.436Z,33.20
2019-05-19T02:13:47.788Z,33.30
2019-05-19T02:16:18.249Z,33.30
2019-05-19T02:18:48.869Z,33.30
2019-05-19T02:21:19.077Z,33.40
2019-05-19T02:23:49.431Z,33.40
2019-05-19T02:26:19.900Z,33.40
2019-05-19T02:28:50.115Z,33.50
2019-05-19T02:31:20.630Z,33.60
2019-05-19T02:33:51.058Z,33.70
2019-05-19T02:36:21.301Z,33.80
2019-05-19T02:38:51.873Z,33.90
2019-05-19T02:41:23.910Z,33.90
2019-05-19T02:43:55.611Z,33.90
2019-05-19T02:46:27.462Z,33.90
2019-05-19T02:48:59.326Z,34.00
2019-05-19T02:51:32.638Z,34.10
2019-05-19T02:54:03.206Z,34.10
2019-05-19T02:56:34.537Z,34.30
2019-05-19T02:59:06.395Z,34.30
2019-05-19T03:01:38.131Z,34.30
2019-05-19T03:04:08.458Z,34.30
2019-05-19T03:06:38.771Z,34.30
2019-05-19T03:09:09.154Z,34.40
2019-05-19T03:11:39.437Z,34.50
2019-05-19T03:14:10.059Z,34.60
2019-05-19T03:16:40.310Z,34.70
2019-05-19T03:19:10.556Z,34.80
2019-05-19T03:21:40.944Z,34.80
2019-05-19T03:24:11.271Z,34.90
2019-05-19T03:26:41.880Z,35.00
2019-05-19T03:29:13.479Z,35.10
2019-05-19T03:31:45.122Z,35.20
2019-05-19T03:36:46.284Z,35.40
2019-05-19T03:39:16.607Z,35.50
2019-05-19T03:41:47.029Z,35.40
2019-05-19T03:44:17.327Z,35.40
2019-05-19T03:46:47.869Z,35.40
2019-05-19T03:49:18.553Z,35.40
2019-05-19T03:51:48.900Z,35.40
2019-05-19T03:54:19.325Z,35.30
2019-05-19T03:56:50.384Z,35.30
2019-05-19T03:59:21.452Z,35.20
2019-05-19T04:01:51.990Z,35.20
2019-05-19T04:04:22.261Z,35.20
2019-05-19T04:06:52.772Z,35.30
2019-05-19T04:09:23.004Z,35.30
2019-05-19T04:11:53.251Z,35.30
2019-05-19T04:14:23.579Z,35.40
2019-05-19T04:16:53.835Z,35.50
2019-05-19T04:19:24.028Z,35.50
2019-05-19T04:21:54.471Z,35.60
2019-05-19T04:24:24.776Z,35.60
2019-05-19T04:27:17.792Z,35.70
2019-05-19T04:29:48.248Z,35.70
2019-05-19T04:32:18.453Z,35.80
2019-05-19T04:34:48.791Z,35.80
2019-05-19T04:37:18.967Z,35.90
2019-05-19T04:39:49.816Z,35.90
2019-05-19T04:42:20.183Z,36.00
2019-05-19T04:44:50.374Z,36.20
2019-05-19T04:47:20.901Z,36.30
2019-05-19T04:49:51.353Z,36.30
2019-05-19T04:52:21.634Z,36.20
2019-05-19T04:54:52.219Z,36.30
2019-05-19T04:57:22.543Z,36.30
2019-05-19T04:59:52.937Z,36.40
2019-05-19T05:02:23.541Z,36.40
2019-05-19T05:04:54.188Z,36.50
2019-05-19T05:07:25.631Z,36.60
2019-05-19T05:09:55.974Z,36.60
2019-05-19T05:12:26.164Z,36.70
2019-05-19T05:14:56.604Z,36.70
2019-05-19T05:17:27.004Z,36.90
2019-05-19T05:19:57.402Z,36.90
2019-05-19T05:22:27.826Z,37.00
2019-05-19T05:24:58.386Z,37.10
2019-05-19T05:27:28.800Z,37.20
2019-05-19T05:29:58.905Z,37.20
2019-05-19T05:32:29.350Z,37.20
2019-05-19T05:34:59.616Z,37.30
2019-05-19T05:37:29.863Z,37.30
2019-05-19T05:40:00.286Z,37.40
2019-05-19T05:42:31.901Z,37.50
2019-05-19T05:45:02.141Z,37.50
2019-05-19T05:47:32.449Z,37.50
2019-05-19T05:50:03.009Z,37.60
2019-05-19T05:52:38.458Z,37.70
2019-05-19T05:55:06.369Z,37.80
2019-05-19T05:57:36.842Z,37.90
2019-05-19T06:00:09.071Z,38.00
2019-05-19T06:02:39.783Z,38.00
2019-05-19T06:05:10.225Z,37.90
2019-05-19T06:07:40.482Z,37.80
2019-05-19T06:10:11.225Z,37.70
2019-05-19T06:12:41.599Z,37.70
2019-05-19T06:15:12.111Z,37.60
2019-05-19T06:17:42.547Z,37.40
2019-05-19T06:20:13.111Z,37.30
2019-05-19T06:22:55.680Z,37.30
2019-05-19T06:25:15.254Z,37.20
2019-05-19T06:27:45.769Z,37.20
2019-05-19T06:30:17.536Z,37.20
2019-05-19T06:32:49.100Z,37.20
2019-05-19T06:35:20.081Z,37.20
2019-05-19T06:37:51.454Z,37.30
2019-05-19T06:40:23.118Z,37.30
2019-05-19T06:42:53.509Z,37.30
2019-05-19T06:45:24.366Z,37.20
2019-05-19T06:47:54.632Z,37.20
2019-05-19T06:50:24.947Z,37.30
2019-05-19T06:53:11.192Z,37.30
2019-05-19T06:55:27.778Z,37.40
2019-05-19T06:57:57.984Z,37.60
2019-05-19T07:00:28.589Z,37.70
2019-05-19T07:02:58.796Z,37.80
2019-05-19T07:05:29.035Z,37.90
2019-05-19T07:07:59.429Z,37.90
2019-05-19T07:10:29.691Z,38.00
2019-05-19T07:12:59.890Z,38.00
2019-05-19T07:15:30.313Z,38.10
2019-05-19T07:18:00.492Z,38.10
2019-05-19T07:20:30.931Z,38.10
2019-05-19T07:23:01.184Z,38.00
2019-05-19T07:25:31.363Z,38.00
2019-05-19T07:28:01.892Z,38.00
2019-05-19T07:30:32.314Z,38.10
2019-05-19T07:33:03.053Z,38.10
2019-05-19T07:35:33.328Z,38.20
2019-05-19T07:38:03.500Z,38.10
2019-05-19T07:40:33.782Z,38.10
2019-05-19T07:43:04.117Z,38.10
2019-05-19T07:45:34.463Z,38.00
2019-05-19T07:48:04.850Z,38.00
2019-05-19T07:50:37.963Z,38.00
2019-05-19T07:53:07.385Z,38.00
2019-05-19T07:55:37.617Z,38.00
2019-05-19T07:58:08.054Z,37.90
2019-05-19T08:00:38.362Z,38.00
2019-05-19T08:03:08.675Z,37.90
2019-05-19T08:05:38.769Z,37.90
2019-05-19T08:08:09.098Z,37.90
2019-05-19T08:10:39.202Z,37.90
2019-05-19T08:13:09.731Z,37.90
2019-05-19T08:15:39.974Z,38.00
2019-05-19T08:18:10.346Z,38.10
2019-05-19T08:20:40.666Z,38.20
2019-05-19T08:23:10.837Z,38.30
2019-05-19T08:25:41.263Z,38.30
2019-05-19T08:28:11.864Z,38.30
2019-05-19T08:30:42.247Z,38.40
2019-05-19T08:33:12.427Z,38.30
2019-05-19T08:35:42.835Z,38.30
2019-05-19T08:38:13.375Z,38.40
2019-05-19T08:40:43.606Z,38.40
2019-05-19T08:43:14.352Z,38.30
2019-05-19T08:45:44.807Z,38.30
2019-05-19T08:48:15.454Z,38.30
2019-05-19T08:50:45.768Z,38.30
2019-05-19T08:53:16.282Z,38.30
2019-05-19T08:55:46.958Z,38.30
2019-05-19T08:58:17.404Z,38.30
2019-05-19T09:00:47.853Z,38.30
2019-05-19T09:03:18.295Z,38.30
2019-05-19T09:05:58.597Z,38.40
2019-05-19T09:08:30.357Z,38.40
2019-05-19T09:11:00.548Z,38.40
2019-05-19T09:13:30.971Z,38.40
2019-05-19T09:16:01.547Z,38.30
2019-05-19T09:18:31.983Z,38.30
2019-05-19T09:21:02.252Z,38.30
2019-05-19T09:23:32.852Z,38.20
2019-05-19T09:26:03.054Z,38.20
2019-05-19T09:28:33.633Z,38.10
2019-05-19T09:31:04.000Z,38.20
2019-05-19T09:33:34.448Z,38.20
2019-05-19T09:36:04.633Z,38.20
2019-05-19T09:38:34.927Z,38.30
2019-05-19T09:41:05.968Z,38.30
2019-05-19T09:43:36.443Z,38.30
2019-05-19T09:46:09.163Z,38.40
2019-05-19T09:48:39.429Z,38.40
2019-05-19T09:51:09.651Z,38.50
2019-05-19T09:53:39.926Z,38.50
2019-05-19T09:56:10.281Z,38.50
2019-05-19T09:58:41.020Z,38.50
2019-05-19T10:01:11.534Z,38.40
2019-05-19T10:03:41.884Z,38.40
2019-05-19T10:06:12.167Z,38.40
2019-05-19T10:08:44.508Z,38.30
2019-05-19T10:11:17.778Z,38.30
2019-05-19T10:13:47.975Z,38.20
2019-05-19T10:16:18.224Z,38.20
2019-05-19T10:18:48.823Z,38.20
2019-05-19T10:21:19.375Z,38.20
2019-05-19T10:23:49.708Z,38.20
2019-05-19T10:26:19.918Z,38.20
2019-05-19T10:28:50.224Z,38.10
2019-05-19T10:31:20.477Z,38.10
2019-05-19T10:33:50.919Z,38.00
2019-05-19T10:36:21.302Z,38.00
2019-05-19T10:38:51.894Z,38.00
2019-05-19T10:41:22.168Z,37.90
2019-05-19T10:43:53.693Z,37.80
2019-05-19T10:46:23.948Z,37.80
2019-05-19T10:48:54.149Z,37.70
2019-05-19T10:51:24.726Z,37.60
2019-05-19T10:53:55.225Z,37.50
2019-05-19T10:56:25.437Z,37.40
2019-05-19T10:58:55.907Z,37.40
2019-05-19T11:01:26.226Z,37.30
2019-05-19T11:03:56.535Z,37.20
2019-05-19T11:06:26.939Z,37.10
2019-05-19T11:08:57.261Z,37.10
2019-05-19T11:11:27.667Z,37.00
2019-05-19T11:13:57.956Z,36.90
2019-05-19T11:18:54.038Z,36.80
2019-05-19T11:21:24.572Z,36.60
2019-05-19T11:23:54.789Z,36.50
2019-05-19T11:26:25.273Z,36.40
2019-05-19T11:28:55.547Z,36.30
2019-05-19T11:31:25.765Z,36.20
2019-05-19T11:33:56.344Z,36.10
2019-05-19T11:36:26.619Z,36.10
2019-05-19T11:38:56.977Z,36.00
2019-05-19T11:41:27.286Z,35.90
2019-05-19T11:43:57.634Z,35.90
2019-05-19T11:46:27.884Z,35.80
2019-05-19T11:48:58.079Z,35.70
2019-05-19T11:51:28.498Z,35.60
2019-05-19T11:53:59.252Z,35.50
2019-05-19T11:56:31.424Z,35.40
2019-05-19T12:01:31.643Z,35.30
2019-05-19T12:04:02.892Z,35.30
2019-05-19T12:06:39.311Z,35.20
2019-05-19T12:09:07.859Z,35.10
2019-05-19T12:11:38.379Z,35.10
2019-05-19T12:16:38.654Z,34.90
2019-05-19T12:19:09.115Z,34.90
2019-05-19T12:21:39.563Z,34.90
2019-05-19T12:24:09.832Z,34.80
2019-05-19T12:26:40.259Z,34.70
2019-05-19T12:29:10.736Z,34.70
2019-05-19T12:31:40.952Z,34.60
2019-05-19T12:34:11.218Z,34.60
2019-05-19T12:36:41.621Z,34.60
2019-05-19T12:39:13.196Z,34.50
2019-05-19T12:41:43.391Z,34.50
2019-05-19T12:44:13.789Z,34.50
2019-05-19T12:46:44.205Z,34.40
2019-05-19T12:49:14.437Z,34.40
2019-05-19T12:51:44.575Z,34.30
2019-05-19T12:54:15.020Z,34.20
2019-05-19T12:56:45.579Z,34.20
2019-05-19T12:59:15.606Z,34.10
2019-05-19T13:01:45.894Z,34.10
2019-05-19T13:04:16.340Z,34.00
2019-05-19T13:06:46.441Z,34.00
2019-05-19T13:09:16.615Z,33.90
2019-05-19T13:11:47.023Z,33.90
2019-05-19T13:14:17.375Z,33.90
2019-05-19T13:16:47.699Z,33.90
2019-05-19T13:19:18.247Z,33.80
2019-05-19T13:21:48.415Z,33.80
2019-05-19T13:24:18.862Z,33.80
2019-05-19T13:26:56.530Z,33.80
2019-05-19T13:29:21.683Z,33.80
2019-05-19T13:31:51.862Z,33.70
2019-05-19T13:34:22.183Z,33.70
2019-05-19T13:36:52.528Z,33.70
2019-05-19T13:39:23.623Z,33.60
2019-05-19T13:41:53.769Z,33.50
2019-05-19T13:44:24.659Z,33.60
2019-05-19T13:46:54.819Z,33.40
2019-05-19T13:49:25.034Z,33.40
2019-05-19T13:51:55.672Z,33.40
2019-05-19T13:54:26.021Z,33.40
2019-05-19T13:57:09.961Z,33.40
2019-05-19T13:59:28.119Z,33.30
2019-05-19T14:01:58.468Z,33.20
2019-05-19T14:04:28.963Z,33.20
2019-05-19T14:06:59.410Z,33.20
2019-05-19T14:09:29.633Z,33.10
2019-05-19T14:12:00.083Z,33.00
2019-05-19T14:14:30.524Z,33.00
2019-05-19T14:17:00.947Z,33.00
2019-05-19T14:19:31.306Z,33.00
2019-05-19T14:22:01.540Z,32.90
2019-05-19T14:24:31.869Z,32.90
2019-05-19T14:27:02.147Z,32.90
2019-05-19T14:29:32.742Z,32.90
2019-05-19T14:32:02.980Z,32.90
2019-05-19T14:34:33.138Z,32.90
2019-05-19T14:37:03.729Z,32.80
2019-05-19T14:39:34.232Z,32.80
2019-05-19T14:42:05.837Z,32.90
2019-05-19T14:44:36.173Z,32.80
2019-05-19T14:47:06.619Z,32.80
2019-05-19T14:49:36.899Z,32.80
2019-05-19T14:52:07.276Z,32.80
2019-05-19T14:54:37.631Z,32.70
2019-05-19T14:57:07.937Z,32.70
2019-05-19T14:59:38.320Z,32.70
2019-05-19T15:02:08.661Z,32.70
2019-05-19T15:04:39.045Z,32.60
2019-05-19T15:07:09.442Z,32.70
2019-05-19T15:09:39.888Z,32.70
2019-05-19T15:12:10.323Z,32.60
2019-05-19T15:14:40.666Z,32.60
2019-05-19T15:17:11.320Z,32.60
2019-05-19T15:19:41.936Z,32.60
2019-05-19T15:22:12.205Z,32.60
2019-05-19T15:24:42.730Z,32.60
2019-05-19T15:27:13.008Z,32.60
2019-05-19T15:29:43.092Z,32.60
2019-05-19T15:32:13.368Z,32.60
2019-05-19T15:34:43.696Z,32.60
2019-05-19T15:37:14.025Z,32.60
2019-05-19T15:39:44.631Z,32.60
2019-05-19T15:42:14.911Z,32.60
2019-05-19T15:44:45.057Z,32.50
2019-05-19T15:47:15.468Z,32.50
2019-05-19T15:49:45.978Z,32.50
2019-05-19T15:52:16.319Z,32.50
2019-05-19T15:54:46.803Z,32.50
2019-05-19T15:57:17.250Z,32.50
2019-05-19T15:59:47.579Z,32.50
2019-05-19T16:02:18.317Z,32.40
2019-05-19T16:04:48.699Z,32.50
2019-05-19T16:07:18.825Z,32.40
2019-05-19T16:09:49.211Z,32.40
2019-05-19T16:12:19.688Z,32.40
2019-05-19T16:14:50.381Z,32.40
2019-05-19T16:17:20.919Z,32.40
2019-05-19T16:19:51.788Z,32.40
2019-05-19T16:22:22.131Z,32.40
2019-05-19T16:24:52.559Z,32.40
2019-05-19T16:27:22.721Z,32.40
2019-05-19T16:29:53.056Z,32.40
2019-05-19T16:32:23.333Z,32.40
2019-05-19T16:34:53.755Z,32.40
2019-05-19T16:37:24.251Z,32.30
2019-05-19T16:39:54.573Z,32.30
2019-05-19T16:42:24.971Z,32.30
2019-05-19T16:44:55.388Z,32.30
2019-05-19T16:47:25.618Z,32.30
2019-05-19T16:49:56.468Z,32.30
2019-05-19T16:52:26.799Z,32.30
2019-05-19T16:54:58.313Z,32.20
2019-05-19T16:57:28.623Z,32.20
2019-05-19T16:59:58.846Z,32.20
2019-05-19T17:02:29.311Z,32.20
2019-05-19T17:04:59.590Z,32.10
2019-05-19T17:07:29.810Z,32.10
2019-05-19T17:10:00.164Z,32.20
2019-05-19T17:12:30.439Z,32.10
2019-05-19T17:15:00.867Z,32.10
2019-05-19T17:17:31.075Z,32.00
2019-05-19T17:20:01.336Z,32.00
2019-05-19T17:22:31.731Z,32.00
2019-05-19T17:25:02.031Z,32.00
2019-05-19T17:27:32.563Z,32.00
2019-05-19T17:30:02.859Z,32.00
2019-05-19T17:32:33.312Z,32.00
2019-05-19T17:35:03.876Z,32.00
2019-05-19T17:37:34.124Z,32.00
2019-05-19T17:40:04.659Z,32.00
2019-05-19T17:42:37.155Z,31.90
2019-05-19T17:45:08.256Z,31.90
2019-05-19T17:47:38.927Z,31.90
2019-05-19T17:50:10.089Z,31.90
2019-05-19T17:52:40.679Z,31.90
2019-05-19T17:55:11.453Z,31.80
2019-05-19T17:57:42.574Z,31.80
2019-05-19T18:00:14.075Z,31.80
2019-05-19T18:02:44.616Z,31.80
2019-05-19T18:05:14.946Z,31.80
2019-05-19T18:07:45.291Z,31.80
2019-05-19T18:10:15.943Z,31.80
2019-05-19T18:12:46.040Z,31.70
2019-05-19T18:15:16.525Z,31.70
2019-05-19T18:17:47.075Z,31.70
2019-05-19T18:20:23.640Z,31.60
2019-05-19T18:22:49.358Z,31.60
2019-05-19T18:25:19.870Z,31.60
2019-05-19T18:27:50.063Z,31.60
2019-05-19T18:30:20.547Z,31.50
2019-05-19T18:32:50.810Z,31.50
2019-05-19T18:35:21.159Z,31.50
2019-05-19T18:37:51.430Z,31.50
2019-05-19T18:40:22.497Z,31.40
2019-05-19T18:42:52.955Z,31.40
2019-05-19T18:45:23.386Z,31.40
2019-05-19T18:47:53.629Z,31.30
2019-05-19T18:50:24.102Z,31.30
2019-05-19T18:52:54.425Z,31.40
2019-05-19T18:55:24.708Z,31.40
2019-05-19T18:57:55.377Z,31.30
2019-05-19T19:00:28.393Z,31.30
2019-05-19T19:02:58.806Z,31.30
2019-05-19T19:05:28.999Z,31.30
2019-05-19T19:07:59.591Z,31.30
2019-05-19T19:10:29.975Z,31.30
2019-05-19T19:13:00.477Z,31.20
2019-05-19T19:15:30.960Z,31.20
2019-05-19T19:18:01.151Z,31.20
2019-05-19T19:20:31.809Z,31.10
2019-05-19T19:23:02.292Z,31.10
2019-05-19T19:25:32.823Z,31.10
2019-05-19T19:28:03.254Z,31.10
2019-05-19T19:30:33.780Z,31.10
2019-05-19T19:33:04.127Z,31.10
2019-05-19T19:35:39.213Z,31.00
2019-05-19T19:38:06.328Z,31.00
2019-05-19T19:40:36.583Z,31.00
2019-05-19T19:43:07.231Z,31.00
2019-05-19T19:45:37.721Z,31.00
2019-05-19T19:48:08.790Z,31.00
2019-05-19T19:50:39.084Z,30.90
2019-05-19T19:53:09.258Z,30.90
2019-05-19T19:55:39.686Z,30.90
2019-05-19T19:58:10.125Z,30.90
2019-05-19T20:00:42.736Z,30.90
2019-05-19T20:03:14.009Z,30.90
2019-05-19T20:05:44.606Z,30.80
2019-05-19T20:08:15.158Z,30.80
2019-05-19T20:10:45.585Z,30.70
2019-05-19T20:13:16.065Z,30.70
2019-05-19T20:15:46.503Z,30.70
2019-05-19T20:18:16.912Z,30.60
2019-05-19T20:20:47.307Z,30.60
2019-05-19T20:23:17.631Z,30.60
2019-05-19T20:25:48.179Z,30.60
2019-05-19T20:28:18.998Z,30.60
2019-05-19T20:30:49.177Z,30.50
2019-05-19T20:33:19.791Z,30.50
2019-05-19T20:35:50.138Z,30.50
2019-05-19T20:38:20.422Z,30.40
2019-05-19T20:40:50.722Z,30.40
2019-05-19T20:43:21.112Z,30.40
2019-05-19T20:45:51.500Z,30.40
2019-05-19T20:48:21.721Z,30.40
2019-05-19T20:50:52.235Z,30.30
2019-05-19T20:53:22.639Z,30.30
2019-05-19T20:55:53.026Z,30.30
2019-05-19T20:58:23.308Z,30.30
2019-05-19T21:00:54.008Z,30.30
2019-05-19T21:03:24.387Z,30.30
2019-05-19T21:05:54.477Z,30.30
2019-05-19T21:08:25.069Z,30.30
2019-05-19T21:10:55.382Z,30.30
2019-05-19T21:13:25.470Z,30.30
2019-05-19T21:15:55.809Z,30.30
2019-05-19T21:18:26.146Z,30.30
2019-05-19T21:20:56.304Z,30.20
2019-05-19T21:23:26.623Z,30.20
2019-05-19T21:25:57.326Z,30.20
2019-05-19T21:28:27.650Z,30.20
2019-05-19T21:31:06.054Z,30.20
2019-05-19T21:33:29.711Z,30.10
2019-05-19T21:36:00.073Z,30.10
2019-05-19T21:38:30.348Z,30.10
2019-05-19T21:41:00.570Z,30.00
2019-05-19T21:43:30.881Z,30.00
2019-05-19T21:46:01.100Z,30.00
2019-05-19T21:48:32.906Z,30.00
2019-05-19T21:51:03.906Z,30.00
2019-05-19T21:53:34.162Z,30.00
2019-05-19T21:56:04.442Z,30.00
2019-05-19T21:58:34.778Z,30.00
2019-05-19T22:01:05.123Z,29.90
2019-05-19T22:03:35.328Z,29.90
2019-05-19T22:06:06.299Z,29.90
2019-05-19T22:08:36.519Z,29.90
2019-05-19T22:11:06.967Z,29.90
2019-05-19T22:13:37.328Z,29.80
2019-05-19T22:16:12.989Z,29.80
2019-05-19T22:18:39.377Z,29.80
2019-05-19T22:21:09.859Z,29.80
2019-05-19T22:23:40.228Z,29.70
2019-05-19T22:26:10.758Z,29.70
2019-05-19T22:28:41.124Z,29.70
2019-05-19T22:31:11.375Z,29.70
2019-05-19T22:33:41.895Z,29.70
2019-05-19T22:36:12.162Z,29.70
2019-05-19T22:38:42.434Z,29.70
2019-05-19T22:41:12.814Z,29.70
2019-05-19T22:43:43.168Z,29.70
2019-05-19T22:46:13.501Z,29.70
2019-05-19T22:48:44.020Z,29.70
2019-05-19T22:51:14.457Z,29.70
2019-05-19T22:53:44.650Z,29.60
2019-05-19T22:56:15.047Z,29.70
2019-05-19T23:01:24.415Z,29.60
2019-05-19T23:03:54.845Z,29.70
2019-05-19T23:06:25.123Z,29.60
2019-05-19T23:08:55.678Z,29.60
2019-05-19T23:11:25.868Z,29.60
2019-05-19T23:13:56.093Z,29.60
2019-05-19T23:16:26.576Z,29.60
2019-05-19T23:18:56.878Z,29.60
2019-05-19T23:21:27.257Z,29.60
2019-05-19T23:23:57.635Z,29.70
2019-05-19T23:26:27.827Z,29.70
2019-05-19T23:28:58.188Z,29.70
2019-05-19T23:31:28.519Z,29.70
2019-05-19T23:33:58.833Z,29.80
2019-05-19T23:36:29.072Z,29.80
2019-05-19T23:38:59.494Z,29.90
2019-05-19T23:41:30.002Z,30.00
2019-05-19T23:44:00.263Z,30.00
2019-05-19T23:46:31.037Z,30.10
2019-05-19T23:49:01.503Z,30.20
2019-05-19T23:51:31.982Z,30.20
2019-05-19T23:54:02.209Z,30.30
2019-05-19T23:56:32.772Z,30.40
2019-05-19T23:59:03.193Z,30.50
